sensor_id;sensor_type;location;lat;lon;timestamp;P1;durP1;ratioP1;P2;durP2;ratioP2
38693;SDS011;24447;43.460;25.744;2022-12-10T00:01:03;69.93;;;31.65;;
38693;SDS011;24447;43.460;25.744;2022-12-10T00:06:03;71.70;;;30.52;;
38693;SDS011;24447;43.460;25.744;2022-12-10T00:08:30;64.32;;;31.40;;
38693;SDS011;24447;43.460;25.744;2022-12-10T00:10:56;62.28;;;31.02;;
38693;SDS011;24447;43.460;25.744;2022-12-10T00:13:22;74.15;;;28.00;;
38693;SDS011;24447;43.460;25.744;2022-12-10T00:15:48;81.40;;;38.42;;
38693;SDS011;24447;43.460;25.744;2022-12-10T00:18:14;82.10;;;38.50;;
38693;SDS011;24447;43.460;25.744;2022-12-10T00:20:40;78.25;;;36.25;;
38693;SDS011;24447;43.460;25.744;2022-12-10T00:23:06;64.50;;;29.00;;
38693;SDS011;24447;43.460;25.744;2022-12-10T00:25:32;61.00;;;27.92;;
38693;SDS011;24447;43.460;25.744;2022-12-10T00:27:58;66.65;;;26.40;;
38693;SDS011;24447;43.460;25.744;2022-12-10T00:30:24;64.32;;;25.52;;
38693;SDS011;24447;43.460;25.744;2022-12-10T00:32:50;65.70;;;27.23;;
38693;SDS011;24447;43.460;25.744;2022-12-10T00:35:16;79.35;;;32.10;;
38693;SDS011;24447;43.460;25.744;2022-12-10T00:37:42;77.03;;;32.22;;
38693;SDS011;24447;43.460;25.744;2022-12-10T00:40:08;73.60;;;31.33;;
38693;SDS011;24447;43.460;25.744;2022-12-10T00:42:35;71.78;;;31.33;;
38693;SDS011;24447;43.460;25.744;2022-12-10T00:45:02;75.28;;;33.10;;
38693;SDS011;24447;43.460;25.744;2022-12-10T00:47:29;74.18;;;31.33;;
38693;SDS011;24447;43.460;25.744;2022-12-10T00:49:55;76.22;;;33.63;;
38693;SDS011;24447;43.460;25.744;2022-12-10T00:52:21;82.95;;;31.67;;
38693;SDS011;24447;43.460;25.744;2022-12-10T00:54:46;79.20;;;33.08;;
38693;SDS011;24447;43.460;25.744;2022-12-10T00:57:12;90.40;;;37.78;;
38693;SDS011;24447;43.460;25.744;2022-12-10T00:59:38;78.20;;;35.80;;
38693;SDS011;24447;43.460;25.744;2022-12-10T01:02:04;88.25;;;45.38;;
38693;SDS011;24447;43.460;25.744;2022-12-10T01:04:30;91.72;;;45.30;;
38693;SDS011;24447;43.460;25.744;2022-12-10T01:06:56;108.00;;;44.67;;
38693;SDS011;24447;43.460;25.744;2022-12-10T01:09:27;110.25;;;41.95;;
38693;SDS011;24447;43.460;25.744;2022-12-10T01:11:55;75.28;;;34.80;;
38693;SDS011;24447;43.460;25.744;2022-12-10T01:14:24;75.10;;;32.35;;
38693;SDS011;24447;43.460;25.744;2022-12-10T01:16:57;81.72;;;32.42;;
38693;SDS011;24447;43.460;25.744;2022-12-10T01:19:27;135.48;;;55.78;;
38693;SDS011;24447;43.460;25.744;2022-12-10T01:21:54;126.60;;;53.28;;
38693;SDS011;24447;43.460;25.744;2022-12-10T01:24:21;120.93;;;48.08;;
38693;SDS011;24447;43.460;25.744;2022-12-10T01:26:48;100.85;;;40.58;;
38693;SDS011;24447;43.460;25.744;2022-12-10T01:29:14;79.55;;;33.15;;
38693;SDS011;24447;43.460;25.744;2022-12-10T01:31:41;76.47;;;26.73;;
38693;SDS011;24447;43.460;25.744;2022-12-10T01:34:08;66.05;;;27.77;;
38693;SDS011;24447;43.460;25.744;2022-12-10T01:36:36;73.38;;;30.90;;
38693;SDS011;24447;43.460;25.744;2022-12-10T01:39:06;82.00;;;32.33;;
38693;SDS011;24447;43.460;25.744;2022-12-10T01:41:34;70.20;;;31.58;;
38693;SDS011;24447;43.460;25.744;2022-12-10T01:44:05;76.45;;;32.75;;
38693;SDS011;24447;43.460;25.744;2022-12-10T01:46:55;86.97;;;36.92;;
38693;SDS011;24447;43.460;25.744;2022-12-10T01:49:36;76.38;;;32.08;;
38693;SDS011;24447;43.460;25.744;2022-12-10T01:52:04;73.18;;;31.55;;
38693;SDS011;24447;43.460;25.744;2022-12-10T01:54:34;83.70;;;31.13;;
38693;SDS011;24447;43.460;25.744;2022-12-10T01:57:12;61.47;;;27.45;;
38693;SDS011;24447;43.460;25.744;2022-12-10T01:59:39;72.65;;;32.20;;
38693;SDS011;24447;43.460;25.744;2022-12-10T02:19:06;87.70;;;37.88;;
38693;SDS011;24447;43.460;25.744;2022-12-10T02:21:37;91.93;;;34.30;;
38693;SDS011;24447;43.460;25.744;2022-12-10T02:24:06;92.18;;;40.50;;
38693;SDS011;24447;43.460;25.744;2022-12-10T02:29:21;96.85;;;42.22;;
38693;SDS011;24447;43.460;25.744;2022-12-10T02:32:06;96.25;;;45.90;;
38693;SDS011;24447;43.460;25.744;2022-12-10T02:34:38;100.90;;;49.67;;
38693;SDS011;24447;43.460;25.744;2022-12-10T02:37:12;100.75;;;41.70;;
38693;SDS011;24447;43.460;25.744;2022-12-10T02:39:46;73.35;;;32.17;;
38693;SDS011;24447;43.460;25.744;2022-12-10T02:42:14;79.25;;;34.60;;
38693;SDS011;24447;43.460;25.744;2022-12-10T02:44:41;83.57;;;35.35;;
38693;SDS011;24447;43.460;25.744;2022-12-10T02:47:08;84.38;;;34.28;;
38693;SDS011;24447;43.460;25.744;2022-12-10T02:49:34;91.72;;;36.25;;
38693;SDS011;24447;43.460;25.744;2022-12-10T02:52:08;81.50;;;32.17;;
38693;SDS011;24447;43.460;25.744;2022-12-10T02:59:46;64.97;;;29.40;;
38693;SDS011;24447;43.460;25.744;2022-12-10T03:07:35;69.30;;;31.35;;
38693;SDS011;24447;43.460;25.744;2022-12-10T03:10:10;84.50;;;39.47;;
38693;SDS011;24447;43.460;25.744;2022-12-10T03:12:49;70.53;;;32.35;;
38693;SDS011;24447;43.460;25.744;2022-12-10T03:15:19;69.10;;;28.63;;
38693;SDS011;24447;43.460;25.744;2022-12-10T03:17:46;56.20;;;26.20;;
38693;SDS011;24447;43.460;25.744;2022-12-10T03:20:14;68.13;;;28.92;;
38693;SDS011;24447;43.460;25.744;2022-12-10T03:22:42;56.13;;;25.38;;
38693;SDS011;24447;43.460;25.744;2022-12-10T03:25:10;49.20;;;24.77;;
38693;SDS011;24447;43.460;25.744;2022-12-10T03:27:38;79.50;;;38.15;;
38693;SDS011;24447;43.460;25.744;2022-12-10T03:30:05;70.13;;;31.13;;
38693;SDS011;24447;43.460;25.744;2022-12-10T03:32:32;70.10;;;33.55;;
38693;SDS011;24447;43.460;25.744;2022-12-10T03:34:58;64.25;;;30.30;;
38693;SDS011;24447;43.460;25.744;2022-12-10T03:37:25;67.95;;;27.02;;
38693;SDS011;24447;43.460;25.744;2022-12-10T03:39:52;51.63;;;23.25;;
38693;SDS011;24447;43.460;25.744;2022-12-10T03:42:18;53.72;;;23.00;;
38693;SDS011;24447;43.460;25.744;2022-12-10T03:44:44;54.92;;;23.67;;
38693;SDS011;24447;43.460;25.744;2022-12-10T03:47:12;50.60;;;23.67;;
38693;SDS011;24447;43.460;25.744;2022-12-10T03:49:39;60.67;;;26.38;;
38693;SDS011;24447;43.460;25.744;2022-12-10T03:52:06;49.03;;;22.67;;
38693;SDS011;24447;43.460;25.744;2022-12-10T03:54:32;45.35;;;23.40;;
38693;SDS011;24447;43.460;25.744;2022-12-10T03:56:58;45.92;;;21.52;;
38693;SDS011;24447;43.460;25.744;2022-12-10T03:59:24;40.42;;;19.75;;
38693;SDS011;24447;43.460;25.744;2022-12-10T04:01:50;42.70;;;20.95;;
38693;SDS011;24447;43.460;25.744;2022-12-10T04:04:16;48.78;;;20.67;;
38693;SDS011;24447;43.460;25.744;2022-12-10T04:06:42;46.13;;;19.52;;
38693;SDS011;24447;43.460;25.744;2022-12-10T04:09:11;41.97;;;18.10;;
38693;SDS011;24447;43.460;25.744;2022-12-10T04:11:38;42.58;;;20.00;;
38693;SDS011;24447;43.460;25.744;2022-12-10T04:14:04;38.40;;;18.20;;
38693;SDS011;24447;43.460;25.744;2022-12-10T04:16:48;41.97;;;22.17;;
38693;SDS011;24447;43.460;25.744;2022-12-10T04:19:16;48.95;;;22.80;;
38693;SDS011;24447;43.460;25.744;2022-12-10T04:21:42;46.15;;;23.95;;
38693;SDS011;24447;43.460;25.744;2022-12-10T04:24:29;52.70;;;24.15;;
38693;SDS011;24447;43.460;25.744;2022-12-10T04:29:48;50.28;;;23.75;;
38693;SDS011;24447;43.460;25.744;2022-12-10T04:32:14;46.80;;;23.83;;
38693;SDS011;24447;43.460;25.744;2022-12-10T04:34:40;51.22;;;23.73;;
38693;SDS011;24447;43.460;25.744;2022-12-10T04:37:06;50.58;;;25.30;;
38693;SDS011;24447;43.460;25.744;2022-12-10T04:39:32;65.70;;;31.17;;
38693;SDS011;24447;43.460;25.744;2022-12-10T04:41:59;59.20;;;29.08;;
38693;SDS011;24447;43.460;25.744;2022-12-10T04:44:26;65.57;;;31.75;;
38693;SDS011;24447;43.460;25.744;2022-12-10T04:46:52;64.45;;;31.90;;
38693;SDS011;24447;43.460;25.744;2022-12-10T04:49:18;69.65;;;34.00;;
38693;SDS011;24447;43.460;25.744;2022-12-10T04:51:44;59.90;;;31.17;;
38693;SDS011;24447;43.460;25.744;2022-12-10T04:54:10;63.28;;;31.52;;
38693;SDS011;24447;43.460;25.744;2022-12-10T04:56:38;70.75;;;35.33;;
38693;SDS011;24447;43.460;25.744;2022-12-10T04:59:05;72.65;;;35.72;;
38693;SDS011;24447;43.460;25.744;2022-12-10T05:01:31;67.22;;;37.13;;
38693;SDS011;24447;43.460;25.744;2022-12-10T05:04:01;68.07;;;34.17;;
38693;SDS011;24447;43.460;25.744;2022-12-10T05:06:28;67.07;;;33.08;;
38693;SDS011;24447;43.460;25.744;2022-12-10T05:08:55;68.63;;;32.13;;
38693;SDS011;24447;43.460;25.744;2022-12-10T05:11:22;65.03;;;32.65;;
38693;SDS011;24447;43.460;25.744;2022-12-10T05:13:49;62.53;;;33.33;;
38693;SDS011;24447;43.460;25.744;2022-12-10T05:16:16;60.88;;;32.65;;
38693;SDS011;24447;43.460;25.744;2022-12-10T05:18:44;60.83;;;28.42;;
38693;SDS011;24447;43.460;25.744;2022-12-10T05:21:11;55.88;;;27.15;;
38693;SDS011;24447;43.460;25.744;2022-12-10T05:23:40;45.13;;;20.35;;
38693;SDS011;24447;43.460;25.744;2022-12-10T05:26:08;45.92;;;21.90;;
38693;SDS011;24447;43.460;25.744;2022-12-10T05:28:41;46.85;;;23.30;;
38693;SDS011;24447;43.460;25.744;2022-12-10T05:31:15;49.35;;;21.80;;
38693;SDS011;24447;43.460;25.744;2022-12-10T05:33:45;47.30;;;21.48;;
38693;SDS011;24447;43.460;25.744;2022-12-10T05:36:12;44.38;;;19.85;;
38693;SDS011;24447;43.460;25.744;2022-12-10T05:38:39;45.83;;;21.52;;
38693;SDS011;24447;43.460;25.744;2022-12-10T05:41:06;42.10;;;19.95;;
38693;SDS011;24447;43.460;25.744;2022-12-10T05:43:38;36.42;;;18.75;;
38693;SDS011;24447;43.460;25.744;2022-12-10T05:46:05;43.17;;;23.30;;
38693;SDS011;24447;43.460;25.744;2022-12-10T05:48:33;49.05;;;23.77;;
38693;SDS011;24447;43.460;25.744;2022-12-10T05:51:04;51.83;;;24.45;;
38693;SDS011;24447;43.460;25.744;2022-12-10T05:53:30;52.03;;;27.20;;
38693;SDS011;24447;43.460;25.744;2022-12-10T05:56:03;47.35;;;25.73;;
38693;SDS011;24447;43.460;25.744;2022-12-10T05:58:31;56.35;;;27.98;;
38693;SDS011;24447;43.460;25.744;2022-12-10T06:00:57;53.45;;;27.63;;
38693;SDS011;24447;43.460;25.744;2022-12-10T06:03:24;53.35;;;27.55;;
38693;SDS011;24447;43.460;25.744;2022-12-10T06:05:51;62.38;;;30.60;;
38693;SDS011;24447;43.460;25.744;2022-12-10T06:08:17;56.72;;;29.48;;
38693;SDS011;24447;43.460;25.744;2022-12-10T06:10:43;63.72;;;31.95;;
38693;SDS011;24447;43.460;25.744;2022-12-10T06:13:09;56.35;;;29.20;;
38693;SDS011;24447;43.460;25.744;2022-12-10T06:15:37;49.08;;;25.85;;
38693;SDS011;24447;43.460;25.744;2022-12-10T06:18:04;44.97;;;23.65;;
38693;SDS011;24447;43.460;25.744;2022-12-10T06:20:30;51.35;;;25.95;;
38693;SDS011;24447;43.460;25.744;2022-12-10T06:22:56;45.70;;;24.98;;
38693;SDS011;24447;43.460;25.744;2022-12-10T06:25:23;50.38;;;23.73;;
38693;SDS011;24447;43.460;25.744;2022-12-10T06:27:49;46.30;;;23.58;;
38693;SDS011;24447;43.460;25.744;2022-12-10T06:30:15;44.90;;;21.30;;
38693;SDS011;24447;43.460;25.744;2022-12-10T06:32:41;42.55;;;22.92;;
38693;SDS011;24447;43.460;25.744;2022-12-10T06:35:08;48.42;;;23.73;;
38693;SDS011;24447;43.460;25.744;2022-12-10T06:37:35;46.33;;;23.85;;
38693;SDS011;24447;43.460;25.744;2022-12-10T06:40:02;47.90;;;25.75;;
38693;SDS011;24447;43.460;25.744;2022-12-10T06:42:28;45.53;;;22.30;;
38693;SDS011;24447;43.460;25.744;2022-12-10T06:44:54;41.63;;;20.27;;
38693;SDS011;24447;43.460;25.744;2022-12-10T06:47:20;49.65;;;24.27;;
38693;SDS011;24447;43.460;25.744;2022-12-10T06:49:46;50.08;;;26.48;;
38693;SDS011;24447;43.460;25.744;2022-12-10T06:52:12;58.88;;;29.48;;
38693;SDS011;24447;43.460;25.744;2022-12-10T06:54:38;81.10;;;43.00;;
38693;SDS011;24447;43.460;25.744;2022-12-10T06:57:04;85.13;;;40.40;;
38693;SDS011;24447;43.460;25.744;2022-12-10T06:59:31;71.18;;;38.88;;
38693;SDS011;24447;43.460;25.744;2022-12-10T07:01:57;74.97;;;43.08;;
38693;SDS011;24447;43.460;25.744;2022-12-10T07:04:23;88.18;;;51.85;;
38693;SDS011;24447;43.460;25.744;2022-12-10T07:06:49;82.35;;;47.80;;
38693;SDS011;24447;43.460;25.744;2022-12-10T07:09:15;71.47;;;41.33;;
38693;SDS011;24447;43.460;25.744;2022-12-10T07:11:41;56.20;;;30.95;;
38693;SDS011;24447;43.460;25.744;2022-12-10T07:14:07;65.20;;;36.28;;
38693;SDS011;24447;43.460;25.744;2022-12-10T07:16:35;60.42;;;31.58;;
38693;SDS011;24447;43.460;25.744;2022-12-10T07:19:01;56.95;;;31.08;;
38693;SDS011;24447;43.460;25.744;2022-12-10T07:21:28;65.93;;;36.15;;
38693;SDS011;24447;43.460;25.744;2022-12-10T07:23:57;59.85;;;34.60;;
38693;SDS011;24447;43.460;25.744;2022-12-10T07:26:31;52.97;;;30.27;;
38693;SDS011;24447;43.460;25.744;2022-12-10T07:28:58;64.32;;;32.75;;
38693;SDS011;24447;43.460;25.744;2022-12-10T07:31:24;48.70;;;28.13;;
38693;SDS011;24447;43.460;25.744;2022-12-10T07:33:50;52.63;;;26.83;;
38693;SDS011;24447;43.460;25.744;2022-12-10T07:36:17;45.38;;;25.83;;
38693;SDS011;24447;43.460;25.744;2022-12-10T07:38:43;39.25;;;20.67;;
38693;SDS011;24447;43.460;25.744;2022-12-10T07:41:10;38.35;;;21.65;;
38693;SDS011;24447;43.460;25.744;2022-12-10T07:43:38;32.63;;;16.33;;
38693;SDS011;24447;43.460;25.744;2022-12-10T07:46:06;28.23;;;14.52;;
38693;SDS011;24447;43.460;25.744;2022-12-10T07:48:34;23.63;;;11.77;;
38693;SDS011;24447;43.460;25.744;2022-12-10T07:51:00;22.80;;;11.20;;
38693;SDS011;24447;43.460;25.744;2022-12-10T07:53:26;19.83;;;8.85;;
38693;SDS011;24447;43.460;25.744;2022-12-10T07:55:52;16.65;;;8.20;;
38693;SDS011;24447;43.460;25.744;2022-12-10T07:58:18;18.80;;;7.47;;
38693;SDS011;24447;43.460;25.744;2022-12-10T08:00:44;54.67;;;28.02;;
38693;SDS011;24447;43.460;25.744;2022-12-10T08:03:10;40.08;;;22.20;;
38693;SDS011;24447;43.460;25.744;2022-12-10T08:05:36;43.60;;;26.60;;
38693;SDS011;24447;43.460;25.744;2022-12-10T08:08:02;72.57;;;38.03;;
38693;SDS011;24447;43.460;25.744;2022-12-10T08:10:28;69.45;;;36.78;;
38693;SDS011;24447;43.460;25.744;2022-12-10T08:12:54;68.25;;;38.38;;
38693;SDS011;24447;43.460;25.744;2022-12-10T08:15:20;50.75;;;27.27;;
38693;SDS011;24447;43.460;25.744;2022-12-10T08:17:46;42.22;;;24.00;;
38693;SDS011;24447;43.460;25.744;2022-12-10T08:20:12;36.80;;;17.80;;
38693;SDS011;24447;43.460;25.744;2022-12-10T08:22:38;41.15;;;17.90;;
38693;SDS011;24447;43.460;25.744;2022-12-10T08:25:04;33.45;;;15.20;;
38693;SDS011;24447;43.460;25.744;2022-12-10T08:27:30;39.00;;;18.48;;
38693;SDS011;24447;43.460;25.744;2022-12-10T08:29:56;37.45;;;19.73;;
38693;SDS011;24447;43.460;25.744;2022-12-10T08:32:22;42.63;;;23.38;;
38693;SDS011;24447;43.460;25.744;2022-12-10T08:34:48;44.53;;;22.90;;
38693;SDS011;24447;43.460;25.744;2022-12-10T08:37:14;38.85;;;17.15;;
38693;SDS011;24447;43.460;25.744;2022-12-10T08:39:40;30.88;;;17.65;;
38693;SDS011;24447;43.460;25.744;2022-12-10T08:42:06;32.38;;;16.05;;
38693;SDS011;24447;43.460;25.744;2022-12-10T08:44:32;47.78;;;17.83;;
38693;SDS011;24447;43.460;25.744;2022-12-10T08:46:58;41.78;;;22.45;;
38693;SDS011;24447;43.460;25.744;2022-12-10T08:49:24;51.80;;;23.63;;
38693;SDS011;24447;43.460;25.744;2022-12-10T08:51:50;55.38;;;23.90;;
38693;SDS011;24447;43.460;25.744;2022-12-10T08:54:15;54.72;;;25.38;;
38693;SDS011;24447;43.460;25.744;2022-12-10T08:56:41;43.70;;;24.40;;
38693;SDS011;24447;43.460;25.744;2022-12-10T08:59:07;33.03;;;17.10;;
38693;SDS011;24447;43.460;25.744;2022-12-10T09:01:33;35.72;;;18.80;;
38693;SDS011;24447;43.460;25.744;2022-12-10T09:03:59;59.75;;;23.83;;
38693;SDS011;24447;43.460;25.744;2022-12-10T09:06:26;55.13;;;22.90;;
38693;SDS011;24447;43.460;25.744;2022-12-10T09:08:53;44.42;;;17.05;;
38693;SDS011;24447;43.460;25.744;2022-12-10T09:11:21;25.35;;;12.82;;
38693;SDS011;24447;43.460;25.744;2022-12-10T09:13:49;46.63;;;17.30;;
38693;SDS011;24447;43.460;25.744;2022-12-10T09:16:16;30.23;;;15.52;;
38693;SDS011;24447;43.460;25.744;2022-12-10T09:18:42;32.83;;;17.58;;
38693;SDS011;24447;43.460;25.744;2022-12-10T09:21:09;27.73;;;13.70;;
38693;SDS011;24447;43.460;25.744;2022-12-10T09:23:37;94.18;;;47.67;;
38693;SDS011;24447;43.460;25.744;2022-12-10T09:26:11;36.45;;;18.10;;
38693;SDS011;24447;43.460;25.744;2022-12-10T09:28:38;25.73;;;12.63;;
38693;SDS011;24447;43.460;25.744;2022-12-10T09:31:05;22.23;;;9.00;;
38693;SDS011;24447;43.460;25.744;2022-12-10T09:33:31;22.70;;;10.98;;
38693;SDS011;24447;43.460;25.744;2022-12-10T09:35:57;22.67;;;10.73;;
38693;SDS011;24447;43.460;25.744;2022-12-10T09:38:23;18.58;;;9.00;;
38693;SDS011;24447;43.460;25.744;2022-12-10T09:40:58;16.15;;;6.90;;
38693;SDS011;24447;43.460;25.744;2022-12-10T09:52:01;23.10;;;10.63;;
38693;SDS011;24447;43.460;25.744;2022-12-10T09:54:37;27.00;;;10.50;;
38693;SDS011;24447;43.460;25.744;2022-12-10T09:57:06;24.80;;;11.63;;
38693;SDS011;24447;43.460;25.744;2022-12-10T09:59:40;20.48;;;9.02;;
38693;SDS011;24447;43.460;25.744;2022-12-10T10:04:34;35.08;;;14.93;;
38693;SDS011;24447;43.460;25.744;2022-12-10T10:07:00;41.45;;;17.35;;
38693;SDS011;24447;43.460;25.744;2022-12-10T10:09:26;44.13;;;21.77;;
38693;SDS011;24447;43.460;25.744;2022-12-10T10:11:52;48.85;;;20.98;;
38693;SDS011;24447;43.460;25.744;2022-12-10T10:14:22;49.70;;;23.10;;
38693;SDS011;24447;43.460;25.744;2022-12-10T10:16:51;54.55;;;23.15;;
38693;SDS011;24447;43.460;25.744;2022-12-10T10:19:27;73.60;;;30.67;;
38693;SDS011;24447;43.460;25.744;2022-12-10T10:21:55;50.28;;;23.35;;
38693;SDS011;24447;43.460;25.744;2022-12-10T10:24:22;50.10;;;22.63;;
38693;SDS011;24447;43.460;25.744;2022-12-10T10:26:53;75.85;;;33.55;;
38693;SDS011;24447;43.460;25.744;2022-12-10T10:29:22;48.95;;;20.80;;
38693;SDS011;24447;43.460;25.744;2022-12-10T10:32:09;52.55;;;25.75;;
38693;SDS011;24447;43.460;25.744;2022-12-10T10:34:38;46.53;;;22.73;;
38693;SDS011;24447;43.460;25.744;2022-12-10T10:37:05;49.22;;;22.83;;
38693;SDS011;24447;43.460;25.744;2022-12-10T10:39:32;42.45;;;19.42;;
38693;SDS011;24447;43.460;25.744;2022-12-10T10:42:07;48.40;;;18.75;;
38693;SDS011;24447;43.460;25.744;2022-12-10T10:44:35;58.63;;;26.65;;
38693;SDS011;24447;43.460;25.744;2022-12-10T10:47:03;82.13;;;44.20;;
38693;SDS011;24447;43.460;25.744;2022-12-10T10:49:50;91.43;;;44.67;;
38693;SDS011;24447;43.460;25.744;2022-12-10T10:52:17;80.28;;;36.05;;
38693;SDS011;24447;43.460;25.744;2022-12-10T10:54:43;59.08;;;28.45;;
38693;SDS011;24447;43.460;25.744;2022-12-10T11:00:41;85.68;;;37.60;;
38693;SDS011;24447;43.460;25.744;2022-12-10T11:02:48;39.95;;;19.10;;
38693;SDS011;24447;43.460;25.744;2022-12-10T11:07:49;47.55;;;22.98;;
38693;SDS011;24447;43.460;25.744;2022-12-10T11:10:23;43.13;;;22.08;;
38693;SDS011;24447;43.460;25.744;2022-12-10T11:17:47;33.15;;;13.95;;
38693;SDS011;24447;43.460;25.744;2022-12-10T11:22:50;27.15;;;11.77;;
38693;SDS011;24447;43.460;25.744;2022-12-10T11:25:17;26.20;;;10.23;;
38693;SDS011;24447;43.460;25.744;2022-12-10T11:30:28;18.88;;;8.20;;
38693;SDS011;24447;43.460;25.744;2022-12-10T11:33:09;16.50;;;7.67;;
38693;SDS011;24447;43.460;25.744;2022-12-10T11:36:09;25.42;;;9.63;;
38693;SDS011;24447;43.460;25.744;2022-12-10T11:38:45;22.27;;;9.95;;
38693;SDS011;24447;43.460;25.744;2022-12-10T11:54:58;21.50;;;9.60;;
38693;SDS011;24447;43.460;25.744;2022-12-10T11:57:39;22.40;;;9.45;;
38693;SDS011;24447;43.460;25.744;2022-12-10T12:02:58;24.58;;;10.30;;
38693;SDS011;24447;43.460;25.744;2022-12-10T12:05:29;20.83;;;9.00;;
38693;SDS011;24447;43.460;25.744;2022-12-10T12:11:01;25.45;;;10.73;;
38693;SDS011;24447;43.460;25.744;2022-12-10T12:16:05;21.52;;;9.55;;
38693;SDS011;24447;43.460;25.744;2022-12-10T12:18:57;21.58;;;8.60;;
38693;SDS011;24447;43.460;25.744;2022-12-10T12:21:23;18.90;;;8.60;;
38693;SDS011;24447;43.460;25.744;2022-12-10T12:26:37;18.83;;;8.60;;
38693;SDS011;24447;43.460;25.744;2022-12-10T12:31:35;22.00;;;9.70;;
38693;SDS011;24447;43.460;25.744;2022-12-10T12:36:57;18.90;;;7.90;;
38693;SDS011;24447;43.460;25.744;2022-12-10T12:42:38;21.58;;;8.50;;
38693;SDS011;24447;43.460;25.744;2022-12-10T12:45:24;20.45;;;8.57;;
38693;SDS011;24447;43.460;25.744;2022-12-10T12:48:00;23.55;;;10.15;;
38693;SDS011;24447;43.460;25.744;2022-12-10T12:50:37;19.75;;;8.90;;
38693;SDS011;24447;43.460;25.744;2022-12-10T12:53:06;19.10;;;7.97;;
38693;SDS011;24447;43.460;25.744;2022-12-10T12:55:50;20.05;;;8.65;;
38693;SDS011;24447;43.460;25.744;2022-12-10T13:03:54;30.42;;;12.75;;
38693;SDS011;24447;43.460;25.744;2022-12-10T13:06:22;31.08;;;15.38;;
38693;SDS011;24447;43.460;25.744;2022-12-10T13:11:40;35.45;;;15.13;;
38693;SDS011;24447;43.460;25.744;2022-12-10T13:24:20;43.25;;;21.00;;
38693;SDS011;24447;43.460;25.744;2022-12-10T13:27:01;45.00;;;20.75;;
38693;SDS011;24447;43.460;25.744;2022-12-10T13:29:57;33.63;;;17.60;;
38693;SDS011;24447;43.460;25.744;2022-12-10T13:46:30;28.20;;;11.25;;
38693;SDS011;24447;43.460;25.744;2022-12-10T13:48:58;30.55;;;13.07;;
38693;SDS011;24447;43.460;25.744;2022-12-10T13:54:21;26.08;;;11.77;;
38693;SDS011;24447;43.460;25.744;2022-12-10T14:00:15;27.75;;;12.18;;
38693;SDS011;24447;43.460;25.744;2022-12-10T14:06:00;31.20;;;13.02;;
38693;SDS011;24447;43.460;25.744;2022-12-10T14:08:33;31.27;;;15.00;;
38693;SDS011;24447;43.460;25.744;2022-12-10T14:11:01;35.65;;;14.70;;
38693;SDS011;24447;43.460;25.744;2022-12-10T14:13:41;28.63;;;14.60;;
38693;SDS011;24447;43.460;25.744;2022-12-10T14:16:10;43.35;;;20.42;;
38693;SDS011;24447;43.460;25.744;2022-12-10T14:18:36;55.83;;;27.80;;
38693;SDS011;24447;43.460;25.744;2022-12-10T14:21:03;60.67;;;26.88;;
38693;SDS011;24447;43.460;25.744;2022-12-10T14:23:32;92.43;;;45.65;;
38693;SDS011;24447;43.460;25.744;2022-12-10T14:28:38;67.85;;;35.40;;
38693;SDS011;24447;43.460;25.744;2022-12-10T14:31:06;69.20;;;34.05;;
38693;SDS011;24447;43.460;25.744;2022-12-10T14:33:39;163.93;;;85.75;;
38693;SDS011;24447;43.460;25.744;2022-12-10T14:36:05;59.00;;;27.52;;
38693;SDS011;24447;43.460;25.744;2022-12-10T14:38:33;72.35;;;34.35;;
38693;SDS011;24447;43.460;25.744;2022-12-10T14:41:01;124.30;;;52.95;;
38693;SDS011;24447;43.460;25.744;2022-12-10T14:43:32;64.78;;;27.45;;
38693;SDS011;24447;43.460;25.744;2022-12-10T14:46:03;82.82;;;36.15;;
38693;SDS011;24447;43.460;25.744;2022-12-10T14:48:30;55.00;;;28.40;;
38693;SDS011;24447;43.460;25.744;2022-12-10T14:50:57;54.28;;;27.33;;
38693;SDS011;24447;43.460;25.744;2022-12-10T14:53:29;51.58;;;23.63;;
38693;SDS011;24447;43.460;25.744;2022-12-10T14:55:57;45.35;;;22.67;;
38693;SDS011;24447;43.460;25.744;2022-12-10T14:58:39;46.83;;;21.00;;
38693;SDS011;24447;43.460;25.744;2022-12-10T15:01:09;61.80;;;33.42;;
38693;SDS011;24447;43.460;25.744;2022-12-10T15:03:43;51.35;;;27.48;;
38693;SDS011;24447;43.460;25.744;2022-12-10T15:08:38;49.40;;;23.08;;
38693;SDS011;24447;43.460;25.744;2022-12-10T15:11:04;40.85;;;18.55;;
38693;SDS011;24447;43.460;25.744;2022-12-10T15:13:35;84.85;;;40.25;;
38693;SDS011;24447;43.460;25.744;2022-12-10T15:16:04;60.08;;;25.95;;
38693;SDS011;24447;43.460;25.744;2022-12-10T15:18:32;49.97;;;18.42;;
38693;SDS011;24447;43.460;25.744;2022-12-10T15:21:09;47.42;;;15.40;;
38693;SDS011;24447;43.460;25.744;2022-12-10T15:23:39;35.03;;;12.23;;
38693;SDS011;24447;43.460;25.744;2022-12-10T15:26:14;33.55;;;13.40;;
38693;SDS011;24447;43.460;25.744;2022-12-10T15:28:44;58.83;;;20.98;;
38693;SDS011;24447;43.460;25.744;2022-12-10T15:33:48;37.72;;;12.10;;
38693;SDS011;24447;43.460;25.744;2022-12-10T15:36:37;26.30;;;10.40;;
38693;SDS011;24447;43.460;25.744;2022-12-10T15:41:45;42.17;;;18.23;;
38693;SDS011;24447;43.460;25.744;2022-12-10T15:44:23;43.13;;;14.63;;
38693;SDS011;24447;43.460;25.744;2022-12-10T15:47:00;22.60;;;9.93;;
38693;SDS011;24447;43.460;25.744;2022-12-10T15:49:45;29.17;;;11.18;;
38693;SDS011;24447;43.460;25.744;2022-12-10T15:52:19;19.92;;;7.72;;
38693;SDS011;24447;43.460;25.744;2022-12-10T15:54:51;19.98;;;6.75;;
38693;SDS011;24447;43.460;25.744;2022-12-10T15:59:45;14.52;;;5.47;;
38693;SDS011;24447;43.460;25.744;2022-12-10T16:05:10;37.53;;;13.75;;
38693;SDS011;24447;43.460;25.744;2022-12-10T16:07:37;40.50;;;15.93;;
38693;SDS011;24447;43.460;25.744;2022-12-10T16:10:04;52.80;;;21.55;;
38693;SDS011;24447;43.460;25.744;2022-12-10T16:12:30;45.30;;;15.60;;
38693;SDS011;24447;43.460;25.744;2022-12-10T16:14:57;29.52;;;11.60;;
38693;SDS011;24447;43.460;25.744;2022-12-10T16:17:25;39.50;;;14.00;;
38693;SDS011;24447;43.460;25.744;2022-12-10T16:19:53;40.42;;;16.95;;
38693;SDS011;24447;43.460;25.744;2022-12-10T16:22:19;57.85;;;23.70;;
38693;SDS011;24447;43.460;25.744;2022-12-10T16:24:45;65.32;;;29.27;;
38693;SDS011;24447;43.460;25.744;2022-12-10T16:27:12;53.67;;;24.38;;
38693;SDS011;24447;43.460;25.744;2022-12-10T16:29:39;51.35;;;23.95;;
38693;SDS011;24447;43.460;25.744;2022-12-10T16:32:08;59.75;;;27.27;;
38693;SDS011;24447;43.460;25.744;2022-12-10T16:37:03;47.45;;;19.52;;
38693;SDS011;24447;43.460;25.744;2022-12-10T16:39:30;32.40;;;11.68;;
38693;SDS011;24447;43.460;25.744;2022-12-10T16:41:56;19.17;;;6.80;;
38693;SDS011;24447;43.460;25.744;2022-12-10T16:44:22;21.63;;;8.27;;
38693;SDS011;24447;43.460;25.744;2022-12-10T16:46:48;20.15;;;8.68;;
38693;SDS011;24447;43.460;25.744;2022-12-10T16:49:14;18.13;;;8.63;;
38693;SDS011;24447;43.460;25.744;2022-12-10T16:51:40;20.10;;;6.75;;
38693;SDS011;24447;43.460;25.744;2022-12-10T16:54:08;17.52;;;6.63;;
38693;SDS011;24447;43.460;25.744;2022-12-10T16:56:36;16.02;;;4.88;;